createdAt,value
2023-05-05T00:02:23.249Z,71.31
2023-05-05T00:06:25.960Z,71.62
2023-05-05T00:10:30.028Z,71.86
2023-05-05T00:14:32.642Z,72.76
2023-05-05T00:18:35.295Z,72.40
2023-05-05T00:22:37.891Z,73.08
2023-05-05T00:26:41.884Z,72.73
2023-05-05T00:30:44.672Z,72.17
2023-05-05T00:34:47.414Z,71.38
2023-05-05T00:38:50.012Z,72.24
2023-05-05T00:42:54.003Z,72.54
2023-05-05T00:46:56.787Z,72.88
2023-05-05T00:50:59.622Z,73.45
2023-05-05T00:55:02.734Z,73.58
2023-05-05T00:59:06.741Z,73.87
2023-05-05T01:03:09.459Z,73.88
2023-05-05T01:07:23.239Z,73.97
2023-05-05T01:11:31.039Z,74.67
2023-05-05T01:15:37.440Z,74.46
2023-05-05T01:19:54.299Z,74.60
2023-05-05T01:24:28.229Z,74.95
2023-05-05T01:28:50.568Z,76.34
2023-05-05T01:32:59.390Z,77.32
2023-05-05T01:37:11.075Z,76.91
2023-05-05T01:41:18.303Z,77.04
2023-05-05T01:45:25.750Z,76.88
2023-05-05T01:49:30.948Z,77.57
2023-05-05T01:53:34.831Z,77.85
2023-05-05T01:57:40.769Z,78.04
2023-05-05T02:01:44.731Z,78.69
2023-05-05T02:05:51.185Z,78.55
2023-05-05T02:09:54.752Z,78.69
2023-05-05T02:13:57.489Z,78.80
2023-05-05T02:18:02.492Z,78.07
2023-05-05T02:22:06.773Z,78.54
2023-05-05T02:26:11.533Z,78.81
2023-05-05T02:30:18.062Z,79.21
2023-05-05T02:34:25.249Z,79.35
2023-05-05T02:38:30.421Z,78.89
2023-05-05T02:42:36.149Z,79.62
2023-05-05T02:46:39.380Z,79.25
2023-05-05T02:50:42.095Z,79.84
2023-05-05T02:54:46.246Z,79.66
2023-05-05T02:58:55.325Z,78.92
2023-05-05T03:03:13.996Z,78.79
2023-05-05T03:07:22.989Z,79.93
2023-05-05T03:11:32.878Z,79.47
2023-05-05T03:15:41.406Z,79.76
2023-05-05T03:19:45.572Z,80.02
2023-05-05T03:23:48.902Z,79.97
2023-05-05T03:27:52.861Z,80.27
2023-05-05T03:31:55.522Z,80.05
2023-05-05T03:35:58.213Z,82.73
2023-05-05T03:40:01.067Z,83.37
2023-05-05T03:44:05.488Z,85.90
2023-05-05T03:48:09.637Z,88.78
2023-05-05T03:52:14.519Z,88.11
2023-05-05T03:56:17.697Z,86.36
2023-05-05T04:00:21.999Z,86.94
2023-05-05T04:04:24.760Z,88.06
2023-05-05T04:08:27.460Z,87.22
2023-05-05T04:12:30.213Z,85.33
2023-05-05T04:16:34.251Z,85.17
2023-05-05T04:20:36.980Z,83.18
2023-05-05T04:24:39.596Z,82.63
2023-05-05T04:28:42.216Z,83.12
2023-05-05T04:32:47.038Z,83.37
2023-05-05T04:36:49.667Z,82.93
2023-05-05T04:40:52.302Z,82.65
2023-05-05T04:44:55.121Z,82.19
2023-05-05T04:49:01.939Z,82.31
2023-05-05T04:53:04.572Z,82.08
2023-05-05T04:57:07.314Z,81.75
2023-05-05T05:01:10.046Z,80.64
2023-05-05T05:05:14.328Z,80.77
2023-05-05T05:09:18.314Z,80.03
2023-05-05T05:13:21.035Z,79.67
2023-05-05T05:17:24.870Z,80.10
2023-05-05T05:21:28.960Z,80.49
2023-05-05T05:25:31.717Z,79.79
2023-05-05T05:29:34.670Z,79.75
2023-05-05T05:33:37.820Z,79.63
2023-05-05T05:37:42.303Z,79.33
2023-05-05T05:41:44.947Z,78.92
2023-05-05T05:45:50.393Z,79.30
2023-05-05T05:49:53.514Z,79.05
2023-05-05T05:53:59.032Z,78.77
2023-05-05T05:58:01.780Z,78.40
2023-05-05T06:02:04.564Z,77.44
2023-05-05T06:06:07.546Z,77.10
2023-05-05T06:10:26.815Z,74.96
2023-05-05T06:14:30.934Z,69.46
2023-05-05T06:18:33.629Z,65.97
2023-05-05T06:22:36.336Z,65.61
2023-05-05T06:26:40.350Z,64.18
2023-05-05T06:30:43.695Z,62.84
2023-05-05T06:34:47.398Z,62.16
2023-05-05T06:38:52.719Z,63.73
2023-05-05T06:42:56.709Z,64.24
2023-05-05T06:46:59.413Z,62.63
2023-05-05T06:51:03.017Z,62.23
2023-05-05T06:55:06.722Z,61.97
2023-05-05T06:59:10.739Z,60.84
2023-05-05T07:03:16.758Z,60.42
2023-05-05T07:07:19.352Z,61.06
2023-05-05T07:11:22.030Z,59.75
2023-05-05T07:15:29.152Z,59.81
2023-05-05T07:19:32.484Z,59.95
2023-05-05T07:23:40.661Z,59.25
2023-05-05T07:27:48.280Z,58.36
2023-05-05T07:31:52.327Z,57.20
2023-05-05T07:35:55.544Z,56.51
2023-05-05T07:39:58.165Z,54.13
2023-05-05T07:44:01.180Z,54.98
2023-05-05T07:48:05.349Z,54.10
2023-05-05T07:52:08.051Z,52.80
2023-05-05T07:56:10.729Z,50.82
2023-05-05T08:00:14.684Z,52.35
2023-05-05T08:04:18.715Z,53.39
2023-05-05T08:08:26.215Z,51.60
2023-05-05T08:12:28.831Z,51.81
2023-05-05T08:16:31.716Z,50.88
2023-05-05T08:20:35.893Z,49.71
2023-05-05T08:24:38.569Z,50.52
2023-05-05T08:28:41.306Z,50.03
2023-05-05T08:32:43.970Z,49.67
2023-05-05T08:36:49.122Z,49.35
2023-05-05T08:40:55.600Z,49.75
2023-05-05T08:45:04.943Z,49.30
2023-05-05T08:49:14.825Z,50.51
2023-05-05T08:53:22.473Z,52.31
2023-05-05T08:57:33.406Z,49.66
2023-05-05T09:01:36.451Z,50.25
2023-05-05T09:05:40.679Z,49.14
2023-05-05T09:09:45.241Z,48.78
2023-05-05T09:13:48.425Z,51.46
2023-05-05T09:17:51.260Z,52.25
2023-05-05T09:21:54.608Z,49.53
2023-05-05T09:26:05.909Z,48.67
2023-05-05T09:30:13.607Z,47.50
2023-05-05T09:34:17.996Z,48.46
2023-05-05T09:42:49.970Z,47.95
2023-05-05T09:46:55.253Z,47.27
2023-05-05T09:51:02.588Z,48.64
2023-05-05T09:59:33.861Z,48.59
2023-05-05T10:03:51.417Z,49.09
2023-05-05T10:07:54.077Z,47.99
2023-05-05T10:11:58.862Z,45.20
2023-05-05T10:16:04.679Z,46.75
2023-05-05T10:20:10.920Z,45.07
2023-05-05T10:24:22.654Z,43.93
2023-05-05T10:33:17.300Z,42.55
2023-05-05T10:37:25.765Z,44.43
2023-05-05T10:41:30.918Z,42.39
2023-05-05T10:45:33.963Z,40.31
2023-05-05T10:49:43.949Z,42.15
2023-05-05T10:53:55.885Z,43.50
2023-05-05T10:57:58.580Z,42.28
2023-05-05T11:02:04.730Z,41.82
2023-05-05T11:06:15.711Z,40.84
2023-05-05T11:10:21.558Z,39.87
2023-05-05T11:14:26.129Z,38.91
2023-05-05T11:18:35.784Z,40.22
2023-05-05T11:23:23.797Z,38.60
2023-05-05T11:28:06.767Z,39.07
2023-05-05T11:32:12.813Z,38.28
2023-05-05T11:36:16.873Z,39.59
2023-05-05T11:40:29.851Z,37.16
2023-05-05T11:44:39.205Z,39.60
2023-05-05T11:48:45.949Z,40.17
2023-05-05T11:52:50.332Z,40.60
2023-05-05T11:56:55.950Z,36.61
2023-05-05T12:01:00.908Z,37.13
2023-05-05T12:05:05.397Z,38.22
2023-05-05T12:09:08.406Z,37.95
2023-05-05T12:13:22.035Z,37.05
2023-05-05T12:17:24.821Z,35.30
2023-05-05T12:21:27.469Z,35.79
2023-05-05T12:25:40.524Z,36.33
2023-05-05T12:29:44.472Z,34.58
2023-05-05T12:33:47.474Z,35.13
2023-05-05T12:37:50.117Z,34.42
2023-05-05T12:41:52.742Z,34.82
2023-05-05T12:46:08.473Z,35.64
2023-05-05T12:50:11.491Z,35.34
2023-05-05T12:54:14.129Z,34.29
2023-05-05T12:58:16.853Z,34.81
2023-05-05T13:02:21.537Z,36.92
2023-05-05T13:06:24.709Z,37.30
2023-05-05T13:10:28.320Z,36.65
2023-05-05T13:14:32.867Z,36.06
2023-05-05T13:18:46.097Z,35.94
2023-05-05T13:22:51.385Z,36.45
2023-05-05T13:26:54.193Z,37.78
2023-05-05T13:30:58.630Z,38.60
2023-05-05T13:35:02.748Z,39.85
2023-05-05T13:39:05.494Z,39.45
2023-05-05T13:43:09.827Z,38.92
2023-05-05T13:47:14.069Z,39.51
2023-05-05T13:51:18.234Z,41.05
2023-05-05T13:55:21.532Z,41.26
2023-05-05T13:59:25.893Z,40.08
2023-05-05T14:03:28.520Z,42.36
2023-05-05T14:07:32.751Z,43.75
2023-05-05T14:11:35.482Z,44.63
2023-05-05T14:15:38.475Z,44.56
2023-05-05T14:19:41.083Z,46.10
2023-05-05T14:23:45.005Z,45.19
2023-05-05T14:27:47.824Z,42.14
2023-05-05T14:31:50.712Z,43.75
2023-05-05T14:35:57.203Z,45.28
2023-05-05T14:40:02.034Z,47.94
2023-05-05T14:44:06.315Z,47.50
2023-05-05T14:48:08.988Z,49.15
2023-05-05T14:52:17.113Z,48.72
2023-05-05T14:56:22.617Z,48.58
2023-05-05T15:00:26.616Z,48.45
2023-05-05T15:04:29.242Z,47.29
2023-05-05T15:08:32.806Z,49.34
2023-05-05T15:12:36.824Z,48.70
2023-05-05T15:16:39.606Z,48.29
2023-05-05T15:20:42.260Z,48.27
2023-05-05T15:24:44.876Z,48.83
2023-05-05T15:28:50.292Z,49.43
2023-05-05T15:32:54.205Z,49.75
2023-05-05T15:36:57.111Z,51.73
2023-05-05T15:41:00.027Z,53.07
2023-05-05T15:45:05.041Z,53.60
2023-05-05T15:49:07.723Z,54.51
2023-05-05T15:53:10.716Z,54.87
2023-05-05T15:57:15.130Z,55.41
2023-05-05T16:05:23.255Z,54.62
2023-05-05T16:09:26.099Z,54.27
2023-05-05T16:13:28.739Z,54.48
2023-05-05T16:17:32.744Z,55.55
2023-05-05T16:21:35.361Z,56.23
2023-05-05T16:25:37.999Z,55.35
2023-05-05T16:29:40.780Z,56.27
2023-05-05T16:33:44.755Z,57.43
2023-05-05T16:37:47.505Z,57.51
2023-05-05T16:41:50.175Z,56.29
2023-05-05T16:45:52.970Z,56.56
2023-05-05T16:49:57.187Z,55.50
2023-05-05T16:53:59.821Z,54.44
2023-05-05T16:58:02.531Z,54.72
2023-05-05T17:02:05.245Z,55.75
2023-05-05T17:06:15.576Z,56.54
2023-05-05T17:10:20.228Z,57.24
2023-05-05T17:14:24.349Z,57.88
2023-05-05T17:18:26.945Z,58.48
2023-05-05T17:22:32.236Z,57.94
2023-05-05T17:26:34.929Z,58.39
2023-05-05T17:30:37.792Z,58.99
2023-05-05T17:34:41.148Z,59.39
2023-05-05T17:38:45.096Z,59.97
2023-05-05T17:42:47.697Z,60.59
2023-05-05T17:46:50.634Z,61.75
2023-05-05T17:50:53.217Z,62.35
2023-05-05T17:54:57.413Z,62.45
2023-05-05T17:59:01.171Z,62.09
2023-05-05T18:03:03.918Z,62.51
2023-05-05T18:07:06.562Z,62.06
2023-05-05T18:11:10.548Z,61.69
2023-05-05T18:15:13.287Z,62.04
2023-05-05T18:19:16.135Z,62.16
2023-05-05T18:23:19.204Z,62.47
2023-05-05T18:27:23.364Z,62.41
2023-05-05T18:31:26.583Z,62.54
2023-05-05T18:35:29.419Z,62.36
2023-05-05T18:39:32.019Z,62.26
2023-05-05T18:43:38.148Z,62.67
2023-05-05T18:47:41.456Z,62.82
2023-05-05T18:51:44.191Z,63.24
2023-05-05T18:55:47.132Z,63.48
2023-05-05T18:59:51.252Z,64.11
2023-05-05T19:03:53.967Z,65.48
2023-05-05T19:07:56.707Z,66.32
2023-05-05T19:11:59.558Z,66.83
2023-05-05T19:16:03.654Z,67.09
2023-05-05T19:20:07.556Z,67.46
2023-05-05T19:24:10.440Z,67.79
2023-05-05T19:28:13.160Z,68.65
2023-05-05T19:32:17.556Z,69.06
2023-05-05T19:36:20.297Z,68.97
2023-05-05T19:40:23.769Z,68.73
2023-05-05T19:44:26.461Z,68.29
2023-05-05T19:48:31.459Z,67.21
2023-05-05T19:52:36.537Z,66.98
2023-05-05T19:56:39.472Z,66.83
2023-05-05T20:00:42.417Z,67.39
2023-05-05T20:04:46.383Z,68.42
2023-05-05T20:08:49.184Z,69.84
2023-05-05T20:12:51.826Z,70.80
2023-05-05T20:16:54.556Z,72.03
2023-05-05T20:20:59.816Z,73.84
2023-05-05T20:25:02.556Z,74.96
2023-05-05T20:29:05.184Z,77.02
2023-05-05T20:33:08.077Z,78.90
2023-05-05T20:37:13.778Z,82.07
2023-05-05T20:41:16.625Z,85.49
2023-05-05T20:45:19.357Z,88.27
2023-05-05T20:49:21.932Z,89.40
2023-05-05T20:53:26.170Z,90.40
2023-05-05T20:57:28.821Z,90.75
2023-05-05T21:01:31.491Z,91.36
2023-05-05T21:05:34.208Z,91.68
2023-05-05T21:09:39.157Z,91.59
2023-05-05T21:13:42.189Z,91.72
2023-05-05T21:17:45.175Z,90.90
2023-05-05T21:21:50.107Z,90.93
2023-05-05T21:25:57.328Z,90.42
2023-05-05T21:30:00.199Z,91.22
2023-05-05T21:34:05.321Z,91.88
2023-05-05T21:38:08.350Z,92.89
2023-05-05T21:42:21.735Z,93.66
2023-05-05T21:46:24.727Z,93.97
2023-05-05T21:50:29.474Z,94.25
2023-05-05T21:54:32.467Z,94.27
2023-05-05T21:58:36.520Z,94.73
2023-05-05T22:02:39.290Z,94.53
2023-05-05T22:06:42.028Z,94.49
2023-05-05T22:10:44.690Z,94.91
2023-05-05T22:14:48.626Z,95.04
2023-05-05T22:18:51.361Z,95.02
2023-05-05T22:22:53.948Z,94.87
2023-05-05T22:26:57.356Z,94.67
2023-05-05T22:31:01.514Z,94.63
2023-05-05T22:35:04.683Z,94.66
2023-05-05T22:39:07.438Z,94.88
2023-05-05T22:43:13.399Z,94.84
2023-05-05T22:47:18.983Z,94.58
2023-05-05T22:51:21.655Z,94.54
2023-05-05T22:55:24.869Z,94.54
2023-05-05T22:59:27.495Z,94.69
2023-05-05T23:03:31.789Z,94.62
2023-05-05T23:07:34.384Z,95.01
2023-05-05T23:11:37.057Z,95.39
2023-05-05T23:15:40.976Z,96.03
2023-05-05T23:19:48.457Z,96.48
2023-05-05T23:23:51.142Z,97.21
2023-05-05T23:27:53.770Z,97.78
2023-05-05T23:31:56.584Z,98.16
2023-05-05T23:36:00.680Z,98.30
2023-05-05T23:40:03.397Z,98.73
2023-05-05T23:44:06.795Z,98.61
2023-05-05T23:48:09.479Z,98.88
2023-05-05T23:52:13.769Z,98.36
2023-05-05T23:56:16.750Z,98.31
